Time;durP1;ratioP1;P1;durP2;ratioP2;P2;SDS_P1;SDS_P2;PMS_P1;PMS_P2;Temp;Humidity;BMP_temperature;BMP_pressure;BME280_temperature;BME280_humidity;BME280_pressure;Samples;Min_cycle;Max_cycle;Signal;HPM_P1;HPM_P2
2022/03/16 00:02:19;;;;;;;;;;;23.10;26.60;;;;;;4895201;29;20026;-60
2022/03/16 00:04:48;;;;;;;;;;;23.10;26.60;;;;;;4895309;29;19931;-62
2022/03/16 00:07:15;;;;;;;;;;;23.10;26.60;;;;;;4895171;29;19994;-60
2022/03/16 00:09:43;;;;;;;;;;;23.10;26.70;;;;;;4895398;29;20089;-60
2022/03/16 00:12:10;;;;;;;;;;;23.10;26.70;;;;;;4895363;29;19971;-60
2022/03/16 00:14:37;;;;;;;;;;;23.00;26.70;;;;;;4893647;29;20309;-60
2022/03/16 00:17:06;;;;;;;;;;;23.10;26.70;;;;;;4895149;29;20437;-60
2022/03/16 00:19:33;;;;;;;;;;;23.00;26.70;;;;;;4894604;29;19935;-60
2022/03/16 00:22:01;;;;;;;;;;;23.00;26.70;;;;;;4894931;29;20006;-60
2022/03/16 00:24:28;;;;;;;;;;;23.00;26.70;;;;;;4895023;29;20022;-60
2022/03/16 00:26:56;;;;;;;;;;;23.00;26.70;;;;;;4894374;29;19927;-60
2022/03/16 00:29:24;;;;;;;;;;;23.00;26.70;;;;;;4894706;29;19978;-60
2022/03/16 00:31:51;;;;;;;;;;;23.00;26.70;;;;;;4894474;29;19982;-61
2022/03/16 00:34:19;;;;;;;;;;;23.00;26.70;;;;;;4894712;29;19927;-60
2022/03/16 00:36:46;;;;;;;;;;;23.00;26.80;;;;;;4894347;29;20393;-60
2022/03/16 00:39:13;;;;;;;;;;;23.00;26.80;;;;;;4894169;29;20448;-60
2022/03/16 00:41:41;;;;;;;;;;;23.00;26.80;;;;;;4894693;29;19964;-60
2022/03/16 00:44:08;;;;;;;;;;;23.00;26.80;;;;;;4894059;29;19928;-60
2022/03/16 00:46:36;;;;;;;;;;;23.00;26.80;;;;;;4894404;29;19989;-60
2022/03/16 00:49:05;;;;;;;;;;;23.00;26.80;;;;;;4894285;29;19934;-60
2022/03/16 00:51:32;;;;;;;;;;;23.00;26.80;;;;;;4893583;29;19935;-60
2022/03/16 00:53:59;;;;;;;;;;;23.00;26.80;;;;;;4894486;29;19928;-60
2022/03/16 00:56:26;;;;;;;;;;;23.00;26.80;;;;;;4894298;29;19967;-60
2022/03/16 00:58:53;;;;;;;;;;;23.00;26.80;;;;;;4894032;29;20011;-59
2022/03/16 01:01:20;;;;;;;;;;;23.00;26.80;;;;;;4893985;29;19983;-60
2022/03/16 01:03:47;;;;;;;;;;;23.00;26.80;;;;;;4894048;29;19928;-60
2022/03/16 01:06:17;;;;;;;;;;;23.00;26.80;;;;;;4894072;29;20615;-60
2022/03/16 01:08:44;;;;;;;;;;;23.00;26.80;;;;;;4893895;29;20014;-60
2022/03/16 01:11:12;;;;;;;;;;;23.00;26.80;;;;;;4894017;29;20030;-60
2022/03/16 01:13:39;;;;;;;;;;;23.00;26.80;;;;;;4893806;29;19931;-60
2022/03/16 01:16:06;;;;;;;;;;;23.00;26.80;;;;;;4894243;29;20010;-60
2022/03/16 01:18:34;;;;;;;;;;;23.00;26.80;;;;;;4893901;29;19927;-60
2022/03/16 01:21:03;;;;;;;;;;;23.00;27.30;;;;;;4893966;29;20019;-60
2022/03/16 01:23:30;;;;;;;;;;;23.00;27.30;;;;;;4893927;29;19966;-60
2022/03/16 01:25:57;;;;;;;;;;;23.00;26.80;;;;;;4893388;29;19979;-60
2022/03/16 01:28:24;;;;;;;;;;;23.00;26.90;;;;;;4893621;29;19927;-60
2022/03/16 01:30:52;;;;;;;;;;;23.00;26.90;;;;;;4893519;29;19927;-60
2022/03/16 01:33:19;;;;;;;;;;;23.00;26.90;;;;;;4893292;29;19934;-60
2022/03/16 01:35:46;;;;;;;;;;;23.00;26.90;;;;;;4892568;29;19931;-60
2022/03/16 01:38:13;;;;;;;;;;;23.00;26.90;;;;;;4893284;29;19927;-60
2022/03/16 01:40:40;;;;;;;;;;;23.00;26.90;;;;;;4893814;29;19927;-60
2022/03/16 01:43:08;;;;;;;;;;;23.00;26.90;;;;;;4892864;29;20018;-60
2022/03/16 01:45:35;;;;;;;;;;;23.00;26.90;;;;;;4893453;29;19975;-60
2022/03/16 01:48:02;;;;;;;;;;;23.00;26.90;;;;;;4893481;29;20037;-60
2022/03/16 01:50:29;;;;;;;;;;;23.00;26.90;;;;;;4892983;29;19963;-60
2022/03/16 01:52:56;;;;;;;;;;;23.00;26.90;;;;;;4893288;29;19932;-60
2022/03/16 01:55:23;;;;;;;;;;;23.00;26.90;;;;;;4893280;29;19966;-60
2022/03/16 01:57:50;;;;;;;;;;;23.00;26.90;;;;;;4893469;29;20018;-60
2022/03/16 02:00:17;;;;;;;;;;;23.00;26.90;;;;;;4892397;29;19979;-60
2022/03/16 02:02:46;;;;;;;;;;;23.00;27.00;;;;;;4893178;29;20400;-60
2022/03/16 02:05:13;;;;;;;;;;;22.90;26.90;;;;;;4893399;29;19934;-60
2022/03/16 02:07:42;;;;;;;;;;;22.90;26.90;;;;;;4892933;29;20455;-60
2022/03/16 02:10:09;;;;;;;;;;;22.90;27.00;;;;;;4893155;29;20054;-60
2022/03/16 02:12:46;;;;;;;;;;;22.90;27.00;;;;;;4892957;29;20409;-60
2022/03/16 02:15:13;;;;;;;;;;;22.90;27.00;;;;;;4892900;29;19928;-60
2022/03/16 02:17:40;;;;;;;;;;;22.90;27.00;;;;;;4892749;29;20342;-60
2022/03/16 02:20:08;;;;;;;;;;;22.90;27.00;;;;;;4892648;29;19932;-60
2022/03/16 02:22:36;;;;;;;;;;;22.90;27.00;;;;;;4893405;29;19958;-60
2022/03/16 02:25:04;;;;;;;;;;;22.90;27.00;;;;;;4893068;29;20389;-60
2022/03/16 02:27:31;;;;;;;;;;;22.90;27.00;;;;;;4893095;29;20017;-60
2022/03/16 02:29:59;;;;;;;;;;;22.90;27.00;;;;;;4893069;29;19931;-60
2022/03/16 02:32:25;;;;;;;;;;;22.90;27.00;;;;;;4892707;29;20013;-60
2022/03/16 02:34:52;;;;;;;;;;;22.90;27.00;;;;;;4893246;29;20358;-60
2022/03/16 02:37:19;;;;;;;;;;;22.90;27.00;;;;;;4892567;29;19928;-60
2022/03/16 02:39:47;;;;;;;;;;;23.00;27.00;;;;;;4893026;29;20018;-60
2022/03/16 02:42:15;;;;;;;;;;;22.90;27.00;;;;;;4892692;29;20465;-60
2022/03/16 02:44:42;;;;;;;;;;;22.90;27.00;;;;;;4892598;29;20403;-60
2022/03/16 02:47:09;;;;;;;;;;;22.90;27.00;;;;;;4892981;29;19962;-60
2022/03/16 02:49:36;;;;;;;;;;;22.90;27.10;;;;;;4892837;29;19931;-60
2022/03/16 02:52:07;;;;;;;;;;;22.90;27.00;;;;;;4891722;29;20022;-60
2022/03/16 02:54:40;;;;;;;;;;;22.90;27.10;;;;;;4895178;29;20456;-60
2022/03/16 02:57:07;;;;;;;;;;;22.90;27.10;;;;;;4896460;29;19955;-60
2022/03/16 02:59:35;;;;;;;;;;;22.90;27.10;;;;;;4896410;29;19973;-60
2022/03/16 03:02:02;;;;;;;;;;;22.90;27.10;;;;;;4896537;29;19973;-60
2022/03/16 03:04:29;;;;;;;;;;;22.90;27.10;;;;;;4896433;29;19971;-60
2022/03/16 03:06:58;;;;;;;;;;;22.90;27.10;;;;;;4895465;29;20026;-60
2022/03/16 03:09:25;;;;;;;;;;;22.90;27.10;;;;;;4896065;29;20444;-60
2022/03/16 03:11:52;;;;;;;;;;;22.90;27.10;;;;;;4896352;29;19958;-60
2022/03/16 03:14:19;;;;;;;;;;;22.90;27.10;;;;;;4895687;29;19928;-60
2022/03/16 03:16:49;;;;;;;;;;;22.90;27.10;;;;;;4895901;29;20490;-60
2022/03/16 03:19:21;;;;;;;;;;;22.90;27.10;;;;;;4894601;29;20022;-60
2022/03/16 03:21:49;;;;;;;;;;;22.90;27.10;;;;;;4895681;29;19928;-60
2022/03/16 03:24:16;;;;;;;;;;;22.90;27.10;;;;;;4896028;29;20018;-60
2022/03/16 03:26:43;;;;;;;;;;;22.90;27.10;;;;;;4895401;29;19971;-60
2022/03/16 03:29:10;;;;;;;;;;;22.90;27.10;;;;;;4896050;29;20337;-60
2022/03/16 03:31:37;;;;;;;;;;;22.90;27.10;;;;;;4895861;29;19970;-60
2022/03/16 03:34:04;;;;;;;;;;;22.90;27.10;;;;;;4895601;29;19934;-60
2022/03/16 03:36:31;;;;;;;;;;;22.90;27.10;;;;;;4895589;29;19928;-60
2022/03/16 03:38:58;;;;;;;;;;;22.90;27.10;;;;;;4895213;29;20010;-60
2022/03/16 03:41:26;;;;;;;;;;;22.90;27.10;;;;;;4895520;29;20030;-60
2022/03/16 03:43:54;;;;;;;;;;;22.90;27.10;;;;;;4895525;29;20437;-60
2022/03/16 03:46:21;;;;;;;;;;;22.90;27.10;;;;;;4895581;29;20014;-60
2022/03/16 03:48:48;;;;;;;;;;;22.90;27.20;;;;;;4895415;29;20304;-60
2022/03/16 03:51:15;;;;;;;;;;;22.90;27.10;;;;;;4895451;29;19927;-60
2022/03/16 03:53:42;;;;;;;;;;;22.90;27.20;;;;;;4894124;29;20381;-60
2022/03/16 03:56:09;;;;;;;;;;;22.90;27.20;;;;;;4895049;29;20440;-60
2022/03/16 03:58:38;;;;;;;;;;;22.90;27.20;;;;;;4895100;29;20054;-60
2022/03/16 04:01:06;;;;;;;;;;;22.90;27.20;;;;;;4895270;29;19975;-60
2022/03/16 04:03:33;;;;;;;;;;;22.90;27.20;;;;;;4894988;29;19991;-60
2022/03/16 04:06:01;;;;;;;;;;;22.90;27.20;;;;;;4894994;29;19927;-60
2022/03/16 04:08:28;;;;;;;;;;;22.80;27.20;;;;;;4894945;29;19927;-60
2022/03/16 04:10:55;;;;;;;;;;;22.90;27.20;;;;;;4894737;29;20026;-60
2022/03/16 04:13:22;;;;;;;;;;;22.80;27.20;;;;;;4895010;29;19985;-60
2022/03/16 04:15:49;;;;;;;;;;;22.80;27.20;;;;;;4894735;29;20031;-60
2022/03/16 04:18:16;;;;;;;;;;;22.90;27.30;;;;;;4895050;29;19936;-60
2022/03/16 04:20:43;;;;;;;;;;;22.90;27.20;;;;;;4894962;29;19927;-60
2022/03/16 04:23:10;;;;;;;;;;;22.90;27.30;;;;;;4894996;29;19971;-60
2022/03/16 04:25:37;;;;;;;;;;;22.90;27.20;;;;;;4893569;29;20377;-60
2022/03/16 04:28:04;;;;;;;;;;;22.90;27.20;;;;;;4893864;29;19967;-60
2022/03/16 04:30:31;;;;;;;;;;;22.90;27.20;;;;;;4894124;29;20014;-60
2022/03/16 04:32:58;;;;;;;;;;;22.90;27.20;;;;;;4892745;29;19927;-60
2022/03/16 04:35:25;;;;;;;;;;;22.80;27.20;;;;;;4893342;29;19962;-59
2022/03/16 04:37:52;;;;;;;;;;;22.90;27.30;;;;;;4908712;29;20018;-60
2022/03/16 04:40:19;;;;;;;;;;;22.90;27.30;;;;;;4894173;29;20459;-60
2022/03/16 04:42:47;;;;;;;;;;;22.80;27.20;;;;;;4892900;29;19973;-60
2022/03/16 04:45:14;;;;;;;;;;;22.80;27.20;;;;;;4893197;29;20385;-60
2022/03/16 04:47:41;;;;;;;;;;;22.80;27.20;;;;;;4894029;29;20030;-60
2022/03/16 04:50:08;;;;;;;;;;;22.80;27.20;;;;;;4894136;29;19994;-60
2022/03/16 04:52:43;;;;;;;;;;;22.80;27.30;;;;;;4894435;29;19979;-60
2022/03/16 04:55:10;;;;;;;;;;;22.80;27.30;;;;;;4894228;29;19983;-60
2022/03/16 04:57:37;;;;;;;;;;;22.80;27.30;;;;;;4893861;29;19983;-60
2022/03/16 05:00:05;;;;;;;;;;;22.80;27.30;;;;;;4894040;29;20393;-60
2022/03/16 05:02:32;;;;;;;;;;;22.80;27.30;;;;;;4893920;29;20383;-59
2022/03/16 05:04:59;;;;;;;;;;;22.80;27.30;;;;;;4893836;29;19934;-60
2022/03/16 05:07:26;;;;;;;;;;;22.80;27.30;;;;;;4893817;29;20499;-60
2022/03/16 05:09:53;;;;;;;;;;;22.90;27.30;;;;;;4893325;29;19958;-60
2022/03/16 05:12:20;;;;;;;;;;;22.90;27.30;;;;;;4893994;29;19932;-60
2022/03/16 05:14:47;;;;;;;;;;;22.90;27.30;;;;;;4893325;29;20282;-60
2022/03/16 05:17:14;;;;;;;;;;;22.90;27.40;;;;;;4892364;29;20022;-60
2022/03/16 05:19:46;;;;;;;;;;;22.90;27.30;;;;;;4893964;29;19931;-60
2022/03/16 05:22:12;;;;;;;;;;;22.90;27.30;;;;;;4893777;29;19927;-60
2022/03/16 05:24:39;;;;;;;;;;;22.90;27.30;;;;;;4893827;29;19976;-61
2022/03/16 05:27:06;;;;;;;;;;;22.80;27.30;;;;;;4893895;29;20026;-60
2022/03/16 05:29:33;;;;;;;;;;;22.90;27.40;;;;;;4893701;29;19927;-60
2022/03/16 05:32:00;;;;;;;;;;;22.90;27.40;;;;;;4893527;29;19928;-60
2022/03/16 05:34:27;;;;;;;;;;;22.90;27.50;;;;;;4893314;29;20022;-59
2022/03/16 05:36:55;;;;;;;;;;;22.90;27.30;;;;;;4893519;29;19928;-60
2022/03/16 05:39:22;;;;;;;;;;;22.90;27.40;;;;;;4893400;29;20297;-60
2022/03/16 05:41:50;;;;;;;;;;;22.90;27.40;;;;;;4892937;29;19970;-60
2022/03/16 05:44:17;;;;;;;;;;;22.90;27.40;;;;;;4892409;29;19963;-60
2022/03/16 05:46:43;;;;;;;;;;;22.90;27.40;;;;;;4891460;29;19975;-60
2022/03/16 05:49:10;;;;;;;;;;;22.90;27.40;;;;;;4890409;29;20350;-60
2022/03/16 05:51:37;;;;;;;;;;;22.90;27.40;;;;;;4889720;29;19943;-60
2022/03/16 05:54:05;;;;;;;;;;;22.90;27.40;;;;;;4896345;29;19940;-60
2022/03/16 05:56:33;;;;;;;;;;;22.90;27.40;;;;;;4892618;29;19928;-60
2022/03/16 05:59:00;;;;;;;;;;;22.90;27.40;;;;;;4891451;29;20308;-60
2022/03/16 06:01:27;;;;;;;;;;;22.90;27.40;;;;;;4890445;29;19995;-60
2022/03/16 06:03:54;;;;;;;;;;;22.90;27.40;;;;;;4892801;29;19938;-60
2022/03/16 06:06:21;;;;;;;;;;;23.00;27.40;;;;;;4892783;29;19978;-60
2022/03/16 06:08:48;;;;;;;;;;;23.00;27.30;;;;;;4894095;29;19958;-60
2022/03/16 06:11:15;;;;;;;;;;;23.00;27.30;;;;;;4896739;29;19978;-60
2022/03/16 06:13:42;;;;;;;;;;;23.00;27.30;;;;;;4892017;29;20027;-60
2022/03/16 06:16:09;;;;;;;;;;;23.00;27.30;;;;;;4892768;29;20350;-60
2022/03/16 06:18:36;;;;;;;;;;;23.00;27.30;;;;;;4894779;29;19995;-60
2022/03/16 06:21:03;;;;;;;;;;;23.00;27.30;;;;;;4885822;29;20413;-59
2022/03/16 06:23:32;;;;;;;;;;;23.10;27.40;;;;;;4885111;29;19991;-60
2022/03/16 06:26:01;;;;;;;;;;;23.10;27.50;;;;;;4882120;29;20369;-59
2022/03/16 06:28:28;;;;;;;;;;;23.20;27.60;;;;;;4888958;29;20022;-59
2022/03/16 06:30:56;;;;;;;;;;;23.20;27.80;;;;;;4888962;29;20022;-59
2022/03/16 06:33:27;;;;;;;;;;;23.30;28.00;;;;;;4889105;29;19939;-58
2022/03/16 06:35:56;;;;;;;;;;;23.40;28.20;;;;;;4887402;29;19935;-59
2022/03/16 06:38:23;;;;;;;;;;;23.50;28.20;;;;;;4888455;29;20014;-60
2022/03/16 06:40:50;;;;;;;;;;;23.60;28.20;;;;;;4887255;29;20349;-60
2022/03/16 06:43:17;;;;;;;;;;;23.70;28.10;;;;;;4885208;29;20456;-60
2022/03/16 06:45:44;;;;;;;;;;;23.80;28.10;;;;;;4891401;29;20350;-59
2022/03/16 06:48:11;;;;;;;;;;;23.80;28.00;;;;;;4905783;29;20388;-61
2022/03/16 06:50:38;;;;;;;;;;;23.90;27.90;;;;;;4888291;29;20034;-59
2022/03/16 06:53:05;;;;;;;;;;;24.00;27.90;;;;;;4889753;29;20030;-60
2022/03/16 06:55:32;;;;;;;;;;;24.10;27.90;;;;;;4916815;23;19927;-60
2022/03/16 06:57:59;;;;;;;;;;;24.20;27.90;;;;;;4888555;29;20396;-59
2022/03/16 07:00:26;;;;;;;;;;;24.20;28.00;;;;;;4888934;29;19978;-60
2022/03/16 07:02:58;;;;;;;;;;;24.30;28.00;;;;;;4892440;29;20333;-61
2022/03/16 07:05:32;;;;;;;;;;;24.40;28.20;;;;;;4892373;29;19927;-59
2022/03/16 07:08:01;;;;;;;;;;;24.40;28.20;;;;;;4893810;29;19928;-59
2022/03/16 07:10:28;;;;;;;;;;;24.50;28.00;;;;;;4890648;29;19989;-59
2022/03/16 07:12:55;;;;;;;;;;;24.60;27.80;;;;;;4905860;29;20037;-61
2022/03/16 07:15:23;;;;;;;;;;;24.70;27.80;;;;;;4889518;29;19978;-60
2022/03/16 07:17:50;;;;;;;;;;;24.70;27.70;;;;;;4892745;29;19970;-59
2022/03/16 07:20:17;;;;;;;;;;;24.80;27.70;;;;;;4891020;29;19938;-60
2022/03/16 07:22:44;;;;;;;;;;;24.90;27.60;;;;;;4888270;29;19960;-60
2022/03/16 07:25:21;;;;;;;;;;;24.90;27.60;;;;;;4890923;29;19937;-60
2022/03/16 07:27:49;;;;;;;;;;;25.00;27.70;;;;;;4890910;29;20015;-61
2022/03/16 07:30:17;;;;;;;;;;;25.00;27.60;;;;;;4902585;29;19935;-60
2022/03/16 07:32:44;;;;;;;;;;;25.10;27.60;;;;;;4887140;29;19970;-59
2022/03/16 07:35:11;;;;;;;;;;;25.20;27.70;;;;;;4888628;29;19967;-59
2022/03/16 07:37:39;;;;;;;;;;;25.30;27.70;;;;;;4892950;29;19927;-59
2022/03/16 07:40:06;;;;;;;;;;;25.30;27.60;;;;;;4890361;29;19983;-60
2022/03/16 07:42:35;;;;;;;;;;;25.40;27.60;;;;;;4890257;29;19931;-59
2022/03/16 07:45:02;;;;;;;;;;;25.40;27.80;;;;;;4886568;29;20015;-59
2022/03/16 07:47:30;;;;;;;;;;;25.50;27.80;;;;;;4889779;29;20029;-61
2022/03/16 07:50:07;;;;;;;;;;;25.60;27.90;;;;;;4887762;29;20022;-60
2022/03/16 07:52:34;;;;;;;;;;;25.60;28.00;;;;;;4888740;29;19927;-59
2022/03/16 07:55:01;;;;;;;;;;;25.70;28.20;;;;;;4888169;29;21055;-59
2022/03/16 07:57:28;;;;;;;;;;;25.70;28.10;;;;;;4889966;29;19977;-58
2022/03/16 07:59:56;;;;;;;;;;;25.70;28.10;;;;;;4887882;29;19985;-59
2022/03/16 08:02:23;;;;;;;;;;;25.70;28.20;;;;;;4889144;29;20029;-59
2022/03/16 08:04:50;;;;;;;;;;;25.70;28.20;;;;;;4890065;29;19935;-59
2022/03/16 08:07:17;;;;;;;;;;;25.70;28.20;;;;;;4899063;29;19959;-59
2022/03/16 08:09:44;;;;;;;;;;;25.70;28.30;;;;;;4889957;29;19940;-59
2022/03/16 08:12:11;;;;;;;;;;;25.70;28.30;;;;;;4886351;29;20030;-58
2022/03/16 08:14:38;;;;;;;;;;;25.70;28.30;;;;;;4889889;29;20031;-59
2022/03/16 08:17:05;;;;;;;;;;;25.80;28.30;;;;;;4890309;29;19936;-61
2022/03/16 08:19:32;;;;;;;;;;;25.80;28.30;;;;;;4886998;29;19971;-59
2022/03/16 08:21:59;;;;;;;;;;;25.80;28.40;;;;;;4877107;29;19987;-59
2022/03/16 08:24:28;;;;;;;;;;;25.80;28.50;;;;;;4879764;29;20432;-59
2022/03/16 08:27:15;;;;;;;;;;;25.80;28.50;;;;;;4883392;29;20072;-60
2022/03/16 08:29:42;;;;;;;;;;;25.90;28.90;;;;;;4889335;29;19931;-60
2022/03/16 08:32:09;;;;;;;;;;;25.90;28.80;;;;;;4890031;29;19987;-60
2022/03/16 08:34:37;;;;;;;;;;;25.90;28.40;;;;;;4891286;29;19983;-59
2022/03/16 08:37:04;;;;;;;;;;;25.90;28.70;;;;;;4892357;29;20371;-59
2022/03/16 08:39:37;;;;;;;;;;;25.90;28.80;;;;;;4891867;29;20444;-58
2022/03/16 08:42:05;;;;;;;;;;;25.90;28.80;;;;;;4888402;29;20448;-60
2022/03/16 08:44:32;;;;;;;;;;;26.00;28.70;;;;;;4885131;29;20772;-58
2022/03/16 08:47:00;;;;;;;;;;;26.00;28.60;;;;;;4888425;29;19939;-59
2022/03/16 08:49:29;;;;;;;;;;;26.00;28.60;;;;;;4889608;29;19939;-59
2022/03/16 08:51:57;;;;;;;;;;;26.00;28.40;;;;;;4889206;29;19942;-59
2022/03/16 08:54:24;;;;;;;;;;;26.00;28.40;;;;;;4887992;29;20154;-59
2022/03/16 08:56:53;;;;;;;;;;;26.00;28.50;;;;;;4884810;29;19964;-58
2022/03/16 08:59:20;;;;;;;;;;;26.00;28.60;;;;;;4882977;29;19936;-58
2022/03/16 09:01:47;;;;;;;;;;;26.00;28.40;;;;;;4883368;29;20278;-60
2022/03/16 09:04:15;;;;;;;;;;;26.00;28.20;;;;;;4883966;29;19935;-58
2022/03/16 09:06:42;;;;;;;;;;;26.00;28.20;;;;;;4885709;29;20001;-58
2022/03/16 09:09:09;;;;;;;;;;;25.90;28.00;;;;;;4886006;29;19974;-59
2022/03/16 09:11:36;;;;;;;;;;;25.90;28.10;;;;;;4887897;29;20359;-59
2022/03/16 09:14:05;;;;;;;;;;;25.80;28.00;;;;;;4887449;29;20359;-58
2022/03/16 09:16:32;;;;;;;;;;;25.80;28.00;;;;;;4888835;29;19935;-59
2022/03/16 09:19:00;;;;;;;;;;;25.70;27.90;;;;;;4888551;29;19935;-58
2022/03/16 09:21:27;;;;;;;;;;;25.70;27.90;;;;;;4886406;29;19955;-59
2022/03/16 09:23:54;;;;;;;;;;;25.60;27.90;;;;;;4889717;29;20022;-59
2022/03/16 09:26:21;;;;;;;;;;;25.60;27.90;;;;;;4885700;29;20006;-59
2022/03/16 09:28:49;;;;;;;;;;;25.60;28.00;;;;;;4887293;29;19975;-59
2022/03/16 09:31:16;;;;;;;;;;;25.60;28.00;;;;;;4886295;29;19979;-59
2022/03/16 09:33:44;;;;;;;;;;;25.50;28.00;;;;;;4885604;29;19939;-59
2022/03/16 09:36:11;;;;;;;;;;;25.50;28.20;;;;;;4883418;29;19979;-59
2022/03/16 09:38:38;;;;;;;;;;;25.50;28.30;;;;;;4884808;29;19988;-59
2022/03/16 09:41:05;;;;;;;;;;;25.50;28.30;;;;;;4882373;29;19940;-60
2022/03/16 09:43:33;;;;;;;;;;;25.50;28.30;;;;;;4886823;29;19943;-58
2022/03/16 09:46:07;;;;;;;;;;;25.50;28.20;;;;;;4887373;29;19931;-58
2022/03/16 09:48:34;;;;;;;;;;;25.50;28.20;;;;;;4885720;29;19968;-58
2022/03/16 09:51:02;;;;;;;;;;;25.60;28.30;;;;;;4887279;29;20396;-58
2022/03/16 09:53:29;;;;;;;;;;;25.60;28.20;;;;;;4885253;29;20021;-58
2022/03/16 09:55:56;;;;;;;;;;;25.60;28.10;;;;;;4885454;29;19971;-59
2022/03/16 09:58:23;;;;;;;;;;;25.70;28.10;;;;;;4882811;29;20412;-62
2022/03/16 10:00:52;;;;;;;;;;;25.70;28.00;;;;;;4885724;29;20334;-60
2022/03/16 10:03:23;;;;;;;;;;;25.70;28.00;;;;;;4883557;29;20444;-59
2022/03/16 10:05:51;;;;;;;;;;;25.70;27.90;;;;;;4890905;29;19927;-60
2022/03/16 10:08:26;;;;;;;;;;;25.80;27.90;;;;;;4883086;29;19935;-59
2022/03/16 10:13:53;;;;;;;;;;;25.80;28.00;;;;;;4883899;29;19932;-58
2022/03/16 10:16:20;;;;;;;;;;;25.80;28.10;;;;;;4883769;29;20325;-58
2022/03/16 10:18:52;;;;;;;;;;;25.90;28.20;;;;;;4886079;29;19928;-58
2022/03/16 10:21:19;;;;;;;;;;;25.90;28.20;;;;;;4886671;29;20657;-59
2022/03/16 10:23:46;;;;;;;;;;;25.90;28.20;;;;;;4882432;29;19939;-59
2022/03/16 10:26:17;;;;;;;;;;;26.00;28.30;;;;;;4884274;29;20085;-58
2022/03/16 10:28:48;;;;;;;;;;;26.00;28.30;;;;;;4884652;29;20012;-59
2022/03/16 10:31:18;;;;;;;;;;;26.00;28.20;;;;;;4883575;29;19935;-58
2022/03/16 10:33:49;;;;;;;;;;;26.00;28.30;;;;;;4885811;29;19928;-59
2022/03/16 10:36:18;;;;;;;;;;;26.00;28.20;;;;;;4885533;29;19982;-59
2022/03/16 10:38:58;;;;;;;;;;;26.00;28.10;;;;;;4884216;29;20348;-60
2022/03/16 10:47:15;;;;;;;;;;;26.00;28.20;;;;;;4885901;29;20034;-60
2022/03/16 10:49:43;;;;;;;;;;;26.10;28.20;;;;;;4890253;29;20404;-60
2022/03/16 10:52:14;;;;;;;;;;;26.10;28.10;;;;;;4889829;29;19939;-61
2022/03/16 10:54:43;;;;;;;;;;;26.10;28.20;;;;;;4889867;29;20361;-60
2022/03/16 10:57:10;;;;;;;;;;;26.10;28.60;;;;;;4885378;29;20283;-60
2022/03/16 10:59:38;;;;;;;;;;;26.10;28.00;;;;;;4886701;29;19945;-60
2022/03/16 11:02:06;;;;;;;;;;;26.10;27.90;;;;;;4889775;29;19979;-60
2022/03/16 11:04:34;;;;;;;;;;;26.20;27.80;;;;;;4887551;29;20727;-60
2022/03/16 11:07:03;;;;;;;;;;;26.10;27.60;;;;;;4885431;29;19928;-60
2022/03/16 11:09:30;;;;;;;;;;;26.20;27.60;;;;;;4887743;29;20385;-60
2022/03/16 11:14:48;;;;;;;;;;;26.20;26.90;;;;;;4885784;29;19928;-61
2022/03/16 11:17:16;;;;;;;;;;;26.20;26.70;;;;;;4892451;29;19931;-61
2022/03/16 11:19:44;;;;;;;;;;;26.20;26.80;;;;;;4894848;29;19942;-61
2022/03/16 11:22:15;;;;;;;;;;;26.20;26.80;;;;;;4887056;29;20656;-60
2022/03/16 11:24:45;;;;;;;;;;;26.20;26.80;;;;;;4891405;29;19936;-61
2022/03/16 11:27:23;;;;;;;;;;;26.20;26.80;;;;;;4891080;29;19936;-60
2022/03/16 11:29:58;;;;;;;;;;;26.20;26.80;;;;;;4885587;29;20022;-60
2022/03/16 11:32:31;;;;;;;;;;;26.20;26.90;;;;;;4886972;29;20035;-60
2022/03/16 11:35:00;;;;;;;;;;;26.20;26.90;;;;;;4889624;29;19934;-60
2022/03/16 11:37:37;;;;;;;;;;;26.20;26.80;;;;;;4893595;29;20297;-60
2022/03/16 11:40:09;;;;;;;;;;;26.20;26.70;;;;;;4892101;29;19975;-59
2022/03/16 11:42:37;;;;;;;;;;;26.30;26.70;;;;;;4888587;29;20019;-60
2022/03/16 11:45:27;;;;;;;;;;;26.30;26.60;;;;;;4886389;29;19979;-60
2022/03/16 11:48:17;;;;;;;;;;;26.30;26.70;;;;;;4887555;29;19935;-60
2022/03/16 11:51:04;;;;;;;;;;;26.20;26.60;;;;;;4889212;29;19982;-60
2022/03/16 11:54:00;;;;;;;;;;;26.30;26.70;;;;;;4892048;29;20350;-60
2022/03/16 11:56:40;;;;;;;;;;;26.30;26.70;;;;;;4878421;29;19927;-60
2022/03/16 11:59:16;;;;;;;;;;;26.30;26.70;;;;;;4890597;29;20357;-61
2022/03/16 12:01:48;;;;;;;;;;;26.30;26.80;;;;;;4889580;29;19939;-60
2022/03/16 12:04:19;;;;;;;;;;;26.20;26.70;;;;;;4885057;29;20035;-60
2022/03/16 12:06:52;;;;;;;;;;;26.20;26.70;;;;;;4888181;29;19935;-60
2022/03/16 12:09:24;;;;;;;;;;;26.20;26.10;;;;;;4890660;29;19986;-60
2022/03/16 12:14:56;;;;;;;;;;;26.10;26.30;;;;;;4885780;29;19943;-60
2022/03/16 12:17:23;;;;;;;;;;;26.10;26.40;;;;;;4889118;29;19974;-60
2022/03/16 12:20:10;;;;;;;;;;;26.10;26.50;;;;;;4890274;29;19975;-60
2022/03/16 12:22:48;;;;;;;;;;;26.00;26.50;;;;;;4887682;29;19978;-59
2022/03/16 12:25:29;;;;;;;;;;;26.10;26.60;;;;;;4885585;29;19954;-59
2022/03/16 12:31:06;;;;;;;;;;;26.10;26.70;;;;;;4897041;29;19983;-60
2022/03/16 12:33:39;;;;;;;;;;;26.10;27.10;;;;;;4884911;29;20351;-59
2022/03/16 12:36:10;;;;;;;;;;;26.10;26.80;;;;;;4886368;29;20472;-59
2022/03/16 12:38:42;;;;;;;;;;;26.10;26.80;;;;;;4885885;29;20385;-61
2022/03/16 12:43:59;;;;;;;;;;;26.10;27.00;;;;;;4882004;29;19936;-60
2022/03/16 12:46:36;;;;;;;;;;;26.10;27.00;;;;;;4884788;29;19979;-61
2022/03/16 12:49:05;;;;;;;;;;;26.10;27.00;;;;;;4886951;29;19995;-60
2022/03/16 12:51:38;;;;;;;;;;;26.10;27.00;;;;;;4886433;29;19931;-60
2022/03/16 12:54:06;;;;;;;;;;;26.10;27.10;;;;;;4888371;29;19979;-60
2022/03/16 12:56:44;;;;;;;;;;;26.10;27.10;;;;;;4885241;29;19934;-61
2022/03/16 12:59:11;;;;;;;;;;;26.10;27.60;;;;;;4888353;29;20326;-59
2022/03/16 13:01:39;;;;;;;;;;;26.10;27.20;;;;;;4887552;29;20630;-60
2022/03/16 13:04:07;;;;;;;;;;;26.10;27.20;;;;;;4884610;29;19935;-60
2022/03/16 13:06:36;;;;;;;;;;;26.10;27.20;;;;;;4892965;29;20444;-60
2022/03/16 13:09:07;;;;;;;;;;;26.10;27.10;;;;;;4888814;29;20760;-62
2022/03/16 13:11:35;;;;;;;;;;;26.10;27.10;;;;;;4887331;29;19936;-59
2022/03/16 13:14:19;;;;;;;;;;;26.10;27.20;;;;;;4885005;29;19935;-62
2022/03/16 13:16:48;;;;;;;;;;;26.10;27.30;;;;;;4887354;29;19932;-61
2022/03/16 13:19:24;;;;;;;;;;;26.10;27.30;;;;;;4888055;29;19991;-61
2022/03/16 13:22:04;;;;;;;;;;;26.20;27.40;;;;;;4894234;29;19935;-61
2022/03/16 13:24:36;;;;;;;;;;;26.20;27.40;;;;;;4899213;29;19928;-60
2022/03/16 13:27:05;;;;;;;;;;;26.20;27.40;;;;;;4890399;29;19936;-60
2022/03/16 13:29:33;;;;;;;;;;;26.20;27.50;;;;;;4885347;29;19936;-61
2022/03/16 13:32:02;;;;;;;;;;;26.20;27.40;;;;;;4887138;29;19935;-59
2022/03/16 13:34:32;;;;;;;;;;;26.30;27.40;;;;;;4895157;23;19928;-60
2022/03/16 13:36:59;;;;;;;;;;;26.30;27.30;;;;;;4869428;29;20339;-60
2022/03/16 13:39:30;;;;;;;;;;;26.30;27.30;;;;;;4866493;29;20405;-59
2022/03/16 13:42:11;;;;;;;;;;;26.30;27.30;;;;;;4868429;29;19995;-61
2022/03/16 13:44:50;;;;;;;;;;;26.30;27.20;;;;;;4866897;29;19938;-62
2022/03/16 13:47:22;;;;;;;;;;;26.30;27.20;;;;;;4869522;29;19931;-60
2022/03/16 13:49:50;;;;;;;;;;;26.30;27.20;;;;;;4869557;29;19932;-60
2022/03/16 13:52:20;;;;;;;;;;;26.30;27.20;;;;;;4864496;29;19988;-59
2022/03/16 13:54:48;;;;;;;;;;;26.30;27.20;;;;;;4866647;29;19972;-60
2022/03/16 13:57:16;;;;;;;;;;;26.30;27.10;;;;;;4868139;29;20022;-61
2022/03/16 13:59:55;;;;;;;;;;;26.20;27.10;;;;;;4869948;29;20745;-58
2022/03/16 14:02:31;;;;;;;;;;;26.20;27.10;;;;;;4868907;29;19944;-58
2022/03/16 14:05:20;;;;;;;;;;;26.20;27.00;;;;;;4865512;29;19959;-58
2022/03/16 14:07:48;;;;;;;;;;;26.20;27.00;;;;;;4870049;29;20385;-58
2022/03/16 14:10:20;;;;;;;;;;;26.20;27.10;;;;;;4869226;29;19932;-60
2022/03/16 14:12:48;;;;;;;;;;;26.20;27.10;;;;;;4867667;29;20084;-60
2022/03/16 14:15:17;;;;;;;;;;;26.10;27.00;;;;;;4866404;29;20781;-61
2022/03/16 14:17:45;;;;;;;;;;;26.10;27.10;;;;;;4883323;29;20381;-59
2022/03/16 14:20:14;;;;;;;;;;;26.10;27.10;;;;;;4867441;29;20382;-60
2022/03/16 14:22:49;;;;;;;;;;;26.10;27.30;;;;;;4868600;29;20035;-60
2022/03/16 14:25:21;;;;;;;;;;;26.00;27.30;;;;;;4867634;29;19976;-60
2022/03/16 14:27:53;;;;;;;;;;;26.00;27.80;;;;;;4868422;29;20653;-59
2022/03/16 14:30:20;;;;;;;;;;;26.00;27.30;;;;;;4869020;29;19935;-60
2022/03/16 14:32:49;;;;;;;;;;;26.00;27.20;;;;;;4871100;29;20584;-60
2022/03/16 14:35:22;;;;;;;;;;;25.90;27.20;;;;;;4870737;29;20346;-60
2022/03/16 14:37:52;;;;;;;;;;;25.90;27.20;;;;;;4868998;29;20322;-59
2022/03/16 14:40:21;;;;;;;;;;;25.90;27.30;;;;;;4867669;29;20313;-60
2022/03/16 14:42:49;;;;;;;;;;;25.90;27.40;;;;;;4867867;29;19932;-60
2022/03/16 14:45:18;;;;;;;;;;;25.90;27.30;;;;;;4871145;29;19928;-60
2022/03/16 14:47:45;;;;;;;;;;;25.80;27.30;;;;;;4870137;29;20035;-59